Perrine, Florida
Current Conditions -  °F | °C
As of 9:53 PM on Sunday 21 Dec 2014 (Local Time) from KTMB Reporting Station
Scattered Clouds Scattered Clouds  
Wind Chill: 70°   Ceiling: Unl
Heat Index: 70°   Visibility: 10mi
Dew Point: 65°   Wind: 6mph
Humidity: 84%   Direction: 130°SE
Pressure: 30.05"   Gusts: NA
Location:  25.61°N, 80.35°W
Report Text: KTMB 220253Z 13005KT 10SM SCT120 21/18 A3005 RMK AO2 SLP173 T02110183 55001
Loading
Personal Weather Stations






























Interactive Weather Map New forecast layout! Learn more

10-Day Weather Forecast

Advertisements
Track Severe Weather on mobile